createdAt,value
2019-06-01T00:01:40.293Z,78.10
2019-06-01T00:04:07.704Z,77.80
2019-06-01T00:06:35.151Z,77.90
2019-06-01T00:09:05.704Z,78.20
2019-06-01T00:11:33.183Z,78.30
2019-06-01T00:14:00.480Z,78.40
2019-06-01T00:16:27.820Z,78.10
2019-06-01T00:18:55.249Z,78.20
2019-06-01T00:21:22.565Z,78.50
2019-06-01T00:23:49.875Z,78.70
2019-06-01T00:26:17.254Z,79.10
2019-06-01T00:28:45.717Z,79.00
2019-06-01T00:31:13.359Z,79.50
2019-06-01T00:33:41.186Z,79.00
2019-06-01T00:36:08.689Z,79.00
2019-06-01T00:38:36.032Z,78.20
2019-06-01T00:41:03.382Z,78.30
2019-06-01T00:43:30.755Z,78.20
2019-06-01T00:45:58.087Z,77.90
2019-06-01T00:48:25.535Z,78.30
2019-06-01T00:50:53.264Z,78.70
2019-06-01T00:53:21.034Z,78.90
2019-06-01T00:55:49.460Z,79.00
2019-06-01T00:58:17.370Z,79.30
2019-06-01T01:00:46.051Z,79.50
2019-06-01T01:03:14.120Z,79.60
2019-06-01T01:05:41.484Z,79.50
2019-06-01T01:08:08.950Z,79.10
2019-06-01T01:10:36.274Z,79.10
2019-06-01T01:13:10.296Z,79.20
2019-06-01T01:15:38.384Z,79.00
2019-06-01T01:18:06.886Z,78.70
2019-06-01T01:20:35.913Z,78.60
2019-06-01T01:23:03.515Z,78.70
2019-06-01T01:25:31.356Z,78.80
2019-06-01T01:27:58.793Z,78.80
2019-06-01T01:30:26.289Z,78.90
2019-06-01T01:32:53.690Z,79.00
2019-06-01T01:35:21.262Z,79.10
2019-06-01T01:37:49.942Z,79.20
2019-06-01T01:40:17.803Z,79.60
2019-06-01T01:42:45.262Z,80.10
2019-06-01T01:45:13.517Z,80.40
2019-06-01T01:47:40.925Z,80.50
2019-06-01T01:50:09.267Z,79.30
2019-06-01T01:52:36.652Z,79.20
2019-06-01T01:55:05.200Z,79.30
2019-06-01T01:57:32.569Z,79.20
2019-06-01T02:00:01.715Z,79.20
2019-06-01T02:02:29.344Z,79.40
2019-06-01T02:04:57.776Z,80.30
2019-06-01T02:07:25.292Z,80.60
2019-06-01T02:09:53.252Z,79.90
2019-06-01T02:12:20.845Z,79.30
2019-06-01T02:14:48.223Z,78.90
2019-06-01T02:17:15.531Z,78.90
2019-06-01T02:19:42.868Z,79.10
2019-06-01T02:22:10.299Z,78.90
2019-06-01T02:24:37.692Z,79.00
2019-06-01T02:27:05.075Z,79.20
2019-06-01T02:29:32.402Z,79.60
2019-06-01T02:32:01.873Z,79.80
2019-06-01T02:34:29.314Z,80.10
2019-06-01T02:36:58.328Z,80.30
2019-06-01T02:39:25.912Z,80.80
2019-06-01T02:41:54.910Z,81.00
2019-06-01T02:44:22.563Z,80.30
2019-06-01T02:46:50.089Z,80.50
2019-06-01T02:49:17.481Z,80.70
2019-06-01T02:51:44.831Z,80.40
2019-06-01T02:54:12.199Z,80.30
2019-06-01T02:56:39.978Z,80.50
2019-06-01T02:59:07.315Z,80.30
2019-06-01T03:01:36.255Z,80.00
2019-06-01T03:04:08.137Z,79.20
2019-06-01T03:06:37.769Z,79.50
2019-06-01T03:09:08.859Z,79.70
2019-06-01T03:11:37.616Z,80.20
2019-06-01T03:14:06.618Z,80.20
2019-06-01T03:16:40.037Z,80.20
2019-06-01T03:19:07.980Z,80.30
2019-06-01T03:21:35.782Z,80.50
2019-06-01T03:24:08.480Z,80.40
2019-06-01T03:26:42.167Z,80.70
2019-06-01T03:29:13.865Z,80.60
2019-06-01T03:31:41.343Z,80.70
2019-06-01T03:34:11.214Z,80.50
2019-06-01T03:36:38.879Z,79.70
2019-06-01T03:39:06.769Z,79.20
2019-06-01T03:41:34.117Z,79.30
2019-06-01T03:44:02.548Z,79.30
2019-06-01T03:46:29.995Z,79.30
2019-06-01T03:48:57.414Z,80.00
2019-06-01T03:51:24.849Z,80.50
2019-06-01T03:53:52.177Z,80.20
2019-06-01T03:56:20.144Z,80.30
2019-06-01T03:58:47.593Z,80.40
2019-06-01T04:01:15.001Z,80.60
2019-06-01T04:03:42.738Z,81.00
2019-06-01T04:06:10.048Z,81.30
2019-06-01T04:08:37.343Z,81.50
2019-06-01T04:11:05.670Z,81.30
2019-06-01T04:13:33.410Z,81.20
2019-06-01T04:16:01.763Z,81.10
2019-06-01T04:18:29.275Z,80.90
2019-06-01T04:20:56.604Z,81.10
2019-06-01T04:23:24.027Z,81.20
2019-06-01T04:25:51.484Z,81.10
2019-06-01T04:28:18.931Z,81.50
2019-06-01T04:30:46.574Z,81.30
2019-06-01T04:33:14.071Z,81.40
2019-06-01T04:35:41.591Z,81.20
2019-06-01T04:38:09.251Z,81.30
2019-06-01T04:40:36.790Z,81.50
2019-06-01T04:43:04.212Z,81.90
2019-06-01T04:45:32.055Z,82.10
2019-06-01T04:47:59.531Z,82.30
2019-06-01T04:50:26.897Z,82.50
2019-06-01T04:52:54.375Z,82.60
2019-06-01T04:55:21.823Z,82.30
2019-06-01T04:57:49.301Z,82.70
2019-06-01T05:00:27.862Z,82.30
2019-06-01T05:02:46.592Z,82.30
2019-06-01T05:05:15.217Z,82.60
2019-06-01T05:07:43.098Z,82.30
2019-06-01T05:10:11.572Z,82.40
2019-06-01T05:12:39.219Z,82.40
2019-06-01T05:15:07.596Z,82.80
2019-06-01T05:17:35.390Z,83.00
2019-06-01T05:20:03.286Z,83.10
2019-06-01T05:22:30.726Z,83.10
2019-06-01T05:24:58.226Z,83.10
2019-06-01T05:27:25.542Z,83.30
2019-06-01T05:29:52.964Z,83.10
2019-06-01T05:32:20.306Z,83.30
2019-06-01T05:34:47.714Z,83.30
2019-06-01T05:37:16.578Z,83.30
2019-06-01T05:39:44.174Z,83.50
2019-06-01T05:42:12.563Z,83.50
2019-06-01T05:44:40.176Z,83.50
2019-06-01T05:47:07.632Z,83.60
2019-06-01T05:49:35.092Z,83.90
2019-06-01T05:52:02.535Z,83.80
2019-06-01T05:54:30.066Z,83.70
2019-06-01T05:56:57.386Z,83.30
2019-06-01T05:59:25.039Z,83.30
2019-06-01T06:01:52.519Z,83.90
2019-06-01T06:04:19.859Z,83.40
2019-06-01T06:06:47.337Z,83.30
2019-06-01T06:09:14.860Z,83.00
2019-06-01T06:11:42.344Z,83.10
2019-06-01T06:14:11.375Z,83.00
2019-06-01T06:16:39.580Z,82.90
2019-06-01T06:19:07.042Z,82.80
2019-06-01T06:21:34.486Z,82.60
2019-06-01T06:24:01.985Z,82.00
2019-06-01T06:26:30.838Z,81.70
2019-06-01T06:28:58.307Z,81.40
2019-06-01T06:31:27.809Z,81.30
2019-06-01T06:33:56.885Z,81.10
2019-06-01T06:36:24.528Z,80.60
2019-06-01T06:38:51.923Z,80.50
2019-06-01T06:41:20.260Z,80.30
2019-06-01T06:43:48.293Z,80.20
2019-06-01T06:46:16.545Z,80.10
2019-06-01T06:48:44.190Z,80.20
2019-06-01T06:51:11.749Z,80.10
2019-06-01T06:53:39.222Z,79.90
2019-06-01T06:56:06.743Z,80.20
2019-06-01T06:58:34.265Z,79.60
2019-06-01T07:01:01.788Z,79.20
2019-06-01T07:03:44.294Z,78.50
2019-06-01T07:06:13.511Z,78.60
2019-06-01T07:08:49.133Z,78.80
2019-06-01T07:11:16.589Z,78.80
2019-06-01T07:13:44.131Z,78.50
2019-06-01T07:16:11.687Z,78.10
2019-06-01T07:18:39.058Z,77.80
2019-06-01T07:21:06.552Z,77.30
2019-06-01T07:23:34.130Z,77.20
2019-06-01T07:26:01.551Z,76.20
2019-06-01T07:28:29.145Z,75.20
2019-06-01T07:30:56.598Z,75.30
2019-06-01T07:33:24.273Z,76.30
2019-06-01T07:35:51.919Z,73.90
2019-06-01T07:38:20.246Z,74.40
2019-06-01T07:40:47.664Z,73.00
2019-06-01T07:43:15.200Z,72.90
2019-06-01T07:45:42.688Z,74.10
2019-06-01T07:48:10.521Z,75.30
2019-06-01T07:50:38.024Z,73.00
2019-06-01T07:53:05.413Z,72.50
2019-06-01T07:55:32.907Z,72.20
2019-06-01T07:58:00.372Z,72.80
2019-06-01T08:00:28.984Z,72.40
2019-06-01T08:02:56.553Z,71.70
2019-06-01T08:05:25.504Z,73.10
2019-06-01T08:07:53.658Z,73.20
2019-06-01T08:10:23.087Z,72.90
2019-06-01T08:12:51.050Z,72.50
2019-06-01T08:15:18.482Z,71.70
2019-06-01T08:17:46.041Z,71.10
2019-06-01T08:20:13.449Z,70.30
2019-06-01T08:22:40.994Z,69.60
2019-06-01T08:25:08.557Z,70.10
2019-06-01T08:27:36.064Z,68.10
2019-06-01T08:30:04.605Z,68.30
2019-06-01T08:32:33.311Z,67.90
2019-06-01T08:35:08.434Z,68.50
2019-06-01T08:37:31.451Z,68.80
2019-06-01T08:39:59.401Z,69.00
2019-06-01T08:42:27.424Z,67.10
2019-06-01T08:44:55.114Z,68.20
2019-06-01T08:47:23.610Z,67.60
2019-06-01T08:49:51.439Z,67.80
2019-06-01T08:52:19.245Z,67.20
2019-06-01T08:54:46.767Z,66.20
2019-06-01T08:57:14.505Z,64.90
2019-06-01T08:59:42.070Z,65.50
2019-06-01T09:02:10.426Z,65.60
2019-06-01T09:04:38.739Z,64.90
2019-06-01T09:07:06.982Z,65.90
2019-06-01T09:09:35.272Z,63.60
2019-06-01T09:12:03.701Z,63.40
2019-06-01T09:14:31.613Z,64.70
2019-06-01T09:16:59.872Z,64.10
2019-06-01T09:19:27.458Z,64.00
2019-06-01T09:21:54.961Z,62.70
2019-06-01T09:24:25.654Z,60.70
2019-06-01T09:26:53.812Z,61.20
2019-06-01T09:29:21.687Z,63.20
2019-06-01T09:31:49.212Z,63.20
2019-06-01T09:34:16.744Z,63.20
2019-06-01T09:36:44.159Z,62.90
2019-06-01T09:39:11.576Z,60.10
2019-06-01T09:41:39.065Z,61.90
2019-06-01T09:44:06.532Z,61.70
2019-06-01T09:46:35.627Z,60.40
2019-06-01T09:49:03.665Z,61.10
2019-06-01T09:51:31.367Z,60.10
2019-06-01T09:54:00.447Z,57.70
2019-06-01T09:56:29.265Z,58.00
2019-06-01T09:58:59.924Z,58.30
2019-06-01T10:01:28.129Z,59.50
2019-06-01T10:03:55.672Z,60.00
2019-06-01T10:06:23.652Z,56.70
2019-06-01T10:08:51.159Z,57.10
2019-06-01T10:11:18.720Z,54.80
2019-06-01T10:13:46.152Z,56.60
2019-06-01T10:16:13.997Z,55.80
2019-06-01T10:18:43.114Z,55.50
2019-06-01T10:21:11.302Z,56.00
2019-06-01T10:23:38.944Z,55.90
2019-06-01T10:26:06.334Z,53.60
2019-06-01T10:28:35.635Z,54.30
2019-06-01T10:31:03.176Z,55.30
2019-06-01T10:33:30.689Z,52.30
2019-06-01T10:35:58.200Z,55.80
2019-06-01T10:38:26.118Z,56.20
2019-06-01T10:40:53.859Z,51.60
2019-06-01T10:43:21.362Z,52.70
2019-06-01T10:45:48.784Z,53.90
2019-06-01T10:48:16.281Z,51.90
2019-06-01T10:50:43.747Z,52.50
2019-06-01T10:53:11.566Z,51.50
2019-06-01T10:55:40.348Z,50.40
2019-06-01T10:58:07.978Z,51.10
2019-06-01T11:00:43.323Z,51.20
2019-06-01T11:03:04.760Z,50.50
2019-06-01T11:05:32.598Z,47.60
2019-06-01T11:08:00.201Z,49.50
2019-06-01T11:10:27.763Z,48.80
2019-06-01T11:12:55.406Z,48.60
2019-06-01T11:15:22.852Z,50.50
2019-06-01T11:17:50.322Z,51.00
2019-06-01T11:20:18.290Z,49.40
2019-06-01T11:22:45.692Z,49.20
2019-06-01T11:25:15.019Z,48.30
2019-06-01T11:27:43.911Z,47.30
2019-06-01T11:30:11.934Z,47.40
2019-06-01T11:32:41.407Z,44.80
2019-06-01T11:35:09.171Z,43.00
2019-06-01T11:37:38.264Z,45.60
2019-06-01T11:40:06.655Z,43.90
2019-06-01T11:42:35.074Z,40.40
2019-06-01T11:45:02.821Z,38.70
2019-06-01T11:47:30.298Z,36.60
2019-06-01T11:49:57.809Z,32.80
2019-06-01T11:52:25.273Z,31.00
2019-06-01T11:54:52.730Z,28.50
2019-06-01T11:57:20.556Z,27.20
2019-06-01T11:59:48.051Z,25.20
2019-06-01T12:02:15.536Z,22.40
2019-06-01T12:04:44.112Z,22.90
2019-06-01T12:07:17.731Z,22.90
2019-06-01T12:09:41.866Z,22.70
2019-06-01T12:12:09.451Z,22.20
2019-06-01T12:14:38.332Z,22.80
2019-06-01T12:17:05.977Z,22.90
2019-06-01T12:19:33.502Z,23.70
2019-06-01T12:22:01.302Z,22.70
2019-06-01T12:24:28.807Z,22.20
2019-06-01T12:26:56.603Z,20.50
2019-06-01T12:29:24.549Z,19.80
2019-06-01T12:31:52.085Z,20.10
2019-06-01T12:34:19.919Z,21.00
2019-06-01T12:36:48.480Z,20.30
2019-06-01T12:39:36.797Z,19.30
2019-06-01T12:42:04.531Z,19.20
2019-06-01T12:44:32.057Z,19.70
2019-06-01T12:46:59.662Z,19.60
2019-06-01T12:49:27.461Z,21.10
2019-06-01T12:51:54.962Z,22.40
2019-06-01T12:54:22.855Z,23.80
2019-06-01T12:56:50.278Z,26.10
2019-06-01T12:59:17.690Z,27.80
2019-06-01T13:01:45.414Z,27.90
2019-06-01T13:04:12.972Z,26.50
2019-06-01T13:06:40.726Z,23.20
2019-06-01T13:09:08.521Z,21.90
2019-06-01T13:11:36.036Z,20.90
2019-06-01T13:14:04.670Z,18.90
2019-06-01T13:16:32.199Z,19.10
2019-06-01T13:19:00.107Z,19.20
2019-06-01T13:21:27.837Z,19.50
2019-06-01T13:23:56.168Z,17.80
2019-06-01T13:26:23.896Z,18.40
2019-06-01T13:28:52.626Z,18.80
2019-06-01T13:31:20.283Z,19.40
2019-06-01T13:33:51.644Z,19.60
2019-06-01T13:36:17.096Z,18.90
2019-06-01T13:38:44.646Z,19.10
2019-06-01T13:41:12.510Z,19.30
2019-06-01T13:43:40.412Z,19.00
2019-06-01T13:46:07.915Z,18.90
2019-06-01T13:48:35.691Z,19.10
2019-06-01T13:51:03.513Z,19.90
2019-06-01T13:53:30.958Z,21.00
2019-06-01T13:55:58.353Z,23.60
2019-06-01T13:58:25.930Z,24.90
2019-06-01T14:00:53.363Z,28.20
2019-06-01T14:03:20.852Z,28.50
2019-06-01T14:05:48.847Z,27.10
2019-06-01T14:08:28.553Z,25.90
2019-06-01T14:10:47.119Z,26.10
2019-06-01T14:13:14.697Z,27.30
2019-06-01T14:15:42.570Z,26.20
2019-06-01T14:18:10.148Z,26.30
2019-06-01T14:20:37.567Z,25.60
2019-06-01T14:23:05.108Z,25.30
2019-06-01T14:25:32.696Z,24.70
2019-06-01T14:28:00.995Z,24.70
2019-06-01T14:30:28.513Z,24.20
2019-06-01T14:32:56.872Z,23.80
2019-06-01T14:35:24.658Z,23.60
2019-06-01T14:37:53.374Z,23.40
2019-06-01T14:40:22.024Z,23.60
2019-06-01T14:42:49.556Z,23.90
2019-06-01T14:45:26.211Z,23.80
2019-06-01T14:47:53.650Z,24.50
2019-06-01T14:50:21.519Z,23.70
2019-06-01T14:52:49.539Z,23.50
2019-06-01T14:55:17.144Z,23.20
2019-06-01T14:57:44.622Z,22.80
2019-06-01T15:00:14.514Z,23.00
2019-06-01T15:02:42.635Z,24.10
2019-06-01T15:05:10.742Z,23.00
2019-06-01T15:07:38.958Z,23.60
2019-06-01T15:10:08.205Z,23.40
2019-06-01T15:12:37.182Z,24.60
2019-06-01T15:15:06.516Z,26.80
2019-06-01T15:17:34.013Z,26.60
2019-06-01T15:20:03.016Z,25.00
2019-06-01T15:22:30.819Z,23.90
2019-06-01T15:24:58.495Z,22.70
2019-06-01T15:27:26.127Z,21.00
2019-06-01T15:29:56.852Z,19.40
2019-06-01T15:32:39.117Z,20.40
2019-06-01T15:35:07.231Z,20.30
2019-06-01T15:37:35.383Z,20.60
2019-06-01T15:40:04.006Z,22.60
2019-06-01T15:42:31.953Z,24.80
2019-06-01T15:45:01.299Z,25.70
2019-06-01T15:47:29.918Z,27.00
2019-06-01T15:50:02.494Z,27.90
2019-06-01T15:52:28.455Z,30.00
2019-06-01T15:54:58.189Z,31.70
2019-06-01T15:57:25.820Z,33.30
2019-06-01T15:59:54.524Z,33.80
2019-06-01T16:02:22.762Z,34.80
2019-06-01T16:04:50.305Z,36.50
2019-06-01T16:07:19.238Z,36.20
2019-06-01T16:09:46.677Z,37.10
2019-06-01T16:12:14.222Z,38.30
2019-06-01T16:14:42.059Z,39.40
2019-06-01T16:17:09.653Z,38.60
2019-06-01T16:19:37.400Z,38.50
2019-06-01T16:22:05.281Z,40.60
2019-06-01T16:24:33.567Z,40.70
2019-06-01T16:27:01.062Z,40.60
2019-06-01T16:29:29.102Z,40.70
2019-06-01T16:31:56.709Z,40.30
2019-06-01T16:34:24.490Z,39.40
2019-06-01T16:36:54.725Z,39.80
2019-06-01T16:39:22.718Z,41.60
2019-06-01T16:41:50.785Z,41.60
2019-06-01T16:44:19.936Z,42.70
2019-06-01T16:46:47.598Z,43.20
2019-06-01T16:49:15.250Z,41.30
2019-06-01T16:51:53.426Z,42.70
2019-06-01T16:54:21.178Z,43.10
2019-06-01T16:56:49.344Z,43.60
2019-06-01T16:59:22.006Z,43.90
2019-06-01T17:01:50.358Z,43.20
2019-06-01T17:04:18.259Z,43.10
2019-06-01T17:06:46.616Z,42.30
2019-06-01T17:09:14.983Z,42.00
2019-06-01T17:11:42.898Z,43.00
2019-06-01T17:14:11.086Z,42.80
2019-06-01T17:16:39.043Z,43.60
2019-06-01T17:19:07.253Z,45.40
2019-06-01T17:21:35.064Z,45.40
2019-06-01T17:24:03.809Z,46.10
2019-06-01T17:26:31.829Z,46.30
2019-06-01T17:29:00.052Z,46.70
2019-06-01T17:31:28.099Z,46.10
2019-06-01T17:33:55.634Z,46.50
2019-06-01T17:36:23.219Z,46.60
2019-06-01T17:38:50.715Z,47.20
2019-06-01T17:41:18.551Z,47.70
2019-06-01T17:43:46.429Z,48.00
2019-06-01T17:46:14.415Z,47.70
2019-06-01T17:48:42.577Z,47.70
2019-06-01T17:51:10.229Z,47.70
2019-06-01T17:53:37.753Z,47.70
2019-06-01T17:56:06.096Z,47.70
2019-06-01T17:58:34.261Z,47.70
2019-06-01T18:01:04.088Z,48.50
2019-06-01T18:03:32.046Z,48.10
2019-06-01T18:05:59.698Z,48.40
2019-06-01T18:08:27.201Z,48.60
2019-06-01T18:10:55.230Z,49.70
2019-06-01T18:13:22.926Z,49.70
2019-06-01T18:15:50.447Z,49.80
2019-06-01T18:18:17.886Z,50.10
2019-06-01T18:20:45.423Z,50.10
2019-06-01T18:23:13.394Z,50.20
2019-06-01T18:25:41.539Z,50.30
2019-06-01T18:28:15.114Z,50.90
2019-06-01T18:30:38.243Z,51.20
2019-06-01T18:33:06.926Z,51.20
2019-06-01T18:35:34.866Z,51.30
2019-06-01T18:38:03.702Z,51.60
2019-06-01T18:40:31.513Z,52.10
2019-06-01T18:43:03.786Z,52.40
2019-06-01T18:45:32.341Z,52.60
2019-06-01T18:48:00.655Z,52.70
2019-06-01T18:50:28.358Z,53.10
2019-06-01T18:52:55.825Z,53.30
2019-06-01T18:55:26.711Z,53.80
2019-06-01T18:57:56.810Z,54.00
2019-06-01T19:00:25.486Z,54.40
2019-06-01T19:02:53.002Z,54.50
2019-06-01T19:05:20.551Z,54.90
2019-06-01T19:07:48.102Z,55.30
2019-06-01T19:10:17.477Z,55.50
2019-06-01T19:12:44.967Z,56.10
2019-06-01T19:15:25.361Z,57.00
2019-06-01T19:17:42.588Z,57.30
2019-06-01T19:20:11.119Z,57.70
2019-06-01T19:22:38.903Z,58.50
2019-06-01T19:25:08.709Z,58.80
2019-06-01T19:27:36.500Z,59.00
2019-06-01T19:30:07.238Z,59.40
2019-06-01T19:32:34.788Z,60.10
2019-06-01T19:35:02.343Z,60.20
2019-06-01T19:37:30.817Z,60.30
2019-06-01T19:39:58.425Z,61.00
2019-06-01T19:42:26.500Z,61.20
2019-06-01T19:44:54.066Z,61.10
2019-06-01T19:47:21.588Z,60.60
2019-06-01T19:49:49.208Z,61.50
2019-06-01T19:52:17.253Z,62.70
2019-06-01T19:54:44.906Z,63.80
2019-06-01T19:57:15.794Z,64.90
2019-06-01T19:59:41.899Z,66.20
2019-06-01T20:02:23.237Z,66.50
2019-06-01T20:04:38.926Z,67.00
2019-06-01T20:07:06.368Z,67.30
2019-06-01T20:09:34.316Z,67.50
2019-06-01T20:12:05.618Z,67.40
2019-06-01T20:14:31.556Z,67.70
2019-06-01T20:16:59.084Z,67.30
2019-06-01T20:19:26.632Z,66.90
2019-06-01T20:21:54.034Z,66.50
2019-06-01T20:24:21.984Z,66.20
2019-06-01T20:26:49.707Z,66.60
2019-06-01T20:29:17.703Z,66.60
2019-06-01T20:31:45.215Z,66.40
2019-06-01T20:34:13.977Z,66.30
2019-06-01T20:36:41.931Z,66.30
2019-06-01T20:39:09.372Z,66.40
2019-06-01T20:41:37.096Z,67.40
2019-06-01T20:44:04.759Z,69.20
2019-06-01T20:46:32.545Z,71.10
2019-06-01T20:49:00.068Z,71.80
2019-06-01T20:51:27.990Z,72.20
2019-06-01T20:53:55.532Z,72.30
2019-06-01T20:56:23.586Z,72.50
2019-06-01T20:58:51.111Z,72.00
2019-06-01T21:01:19.724Z,71.70
2019-06-01T21:03:47.610Z,71.90
2019-06-01T21:06:15.844Z,72.10
2019-06-01T21:08:43.569Z,71.70
2019-06-01T21:11:11.489Z,70.60
2019-06-01T21:13:38.943Z,70.10
2019-06-01T21:16:06.738Z,70.30
2019-06-01T21:18:34.232Z,70.30
2019-06-01T21:21:01.684Z,70.20
2019-06-01T21:23:29.156Z,69.90
2019-06-01T21:25:56.626Z,70.10
2019-06-01T21:28:25.509Z,70.60
2019-06-01T21:30:53.399Z,70.10
2019-06-01T21:33:21.720Z,70.40
2019-06-01T21:35:51.032Z,70.40
2019-06-01T21:38:19.283Z,70.70
2019-06-01T21:40:46.766Z,70.70
2019-06-01T21:43:25.994Z,71.00
2019-06-01T21:45:44.151Z,70.70
2019-06-01T21:48:11.561Z,71.00
2019-06-01T21:50:38.963Z,71.10
2019-06-01T21:53:06.495Z,71.30
2019-06-01T21:55:34.013Z,71.50
2019-06-01T21:58:01.505Z,71.50
2019-06-01T22:00:35.069Z,71.20
2019-06-01T22:03:02.538Z,71.50
2019-06-01T22:05:29.902Z,72.00
2019-06-01T22:07:57.337Z,72.40
2019-06-01T22:10:25.689Z,72.40
2019-06-01T22:12:53.296Z,72.30
2019-06-01T22:15:21.557Z,72.10
2019-06-01T22:17:49.225Z,72.20
2019-06-01T22:20:17.840Z,71.90
2019-06-01T22:22:45.575Z,72.40
2019-06-01T22:25:13.194Z,72.60
2019-06-01T22:27:40.537Z,72.70
2019-06-01T22:30:08.455Z,72.50
2019-06-01T22:32:35.873Z,72.70
2019-06-01T22:35:04.063Z,73.10
2019-06-01T22:37:32.318Z,73.50
2019-06-01T22:40:00.068Z,73.70
2019-06-01T22:42:28.447Z,74.00
2019-06-01T22:44:56.096Z,74.40
2019-06-01T22:47:24.515Z,73.90
2019-06-01T22:49:52.056Z,73.90
2019-06-01T22:52:20.850Z,73.90
2019-06-01T22:54:48.654Z,74.40
2019-06-01T22:57:16.039Z,74.90
2019-06-01T22:59:43.436Z,74.90
2019-06-01T23:02:10.899Z,74.90
2019-06-01T23:04:38.304Z,75.40
2019-06-01T23:07:05.733Z,75.20
2019-06-01T23:09:33.049Z,75.40
2019-06-01T23:12:00.504Z,75.50
2019-06-01T23:14:27.990Z,75.80
2019-06-01T23:16:55.339Z,76.20
2019-06-01T23:19:23.780Z,76.30
2019-06-01T23:21:51.353Z,76.30
2019-06-01T23:24:18.807Z,75.90
2019-06-01T23:26:46.247Z,75.60
2019-06-01T23:29:13.690Z,75.60
2019-06-01T23:31:41.448Z,75.90
2019-06-01T23:34:08.834Z,76.20
2019-06-01T23:36:36.200Z,76.30
2019-06-01T23:39:05.303Z,75.60
2019-06-01T23:41:32.980Z,75.50
2019-06-01T23:44:10.949Z,75.10
2019-06-01T23:46:31.059Z,74.70
2019-06-01T23:48:58.561Z,75.10
2019-06-01T23:51:25.900Z,75.20
2019-06-01T23:53:53.644Z,75.40
2019-06-01T23:56:21.087Z,75.50
2019-06-01T23:58:48.462Z,75.50
